Time;durP1;ratioP1;P1;durP2;ratioP2;P2;SDS_P1;SDS_P2;PMS_P1;PMS_P2;Temp;Humidity;BMP_temperature;BMP_pressure;BME280_temperature;BME280_humidity;BME280_pressure;Samples;Min_cycle;Max_cycle;Signal;HPM_P1;HPM_P2
2022/07/31 00:01:20;;;;;;;8.73;7.93;;;;;;;27.74;47.87;94904.94;6112998;28;104465;-55
2022/07/31 00:04:23;;;;;;;8.60;7.90;;;;;;;27.67;48.89;94902.03;6114225;28;103979;-56
2022/07/31 00:07:26;;;;;;;8.47;7.87;;;;;;;27.63;48.03;94897.72;6110895;28;103707;-57
2022/07/31 00:10:30;;;;;;;7.90;7.30;;;;;;;27.56;48.21;94894.84;6107277;28;104937;-55
2022/07/31 00:13:34;;;;;;;8.03;7.23;;;;;;;27.70;48.19;94898.66;6113584;28;104069;-55
2022/07/31 00:16:57;;;;;;;8.50;7.87;;;;;;;27.89;47.19;94900.72;6113638;28;106518;-55
2022/07/31 00:20:00;;;;;;;8.50;7.90;;;;;;;27.91;47.47;94889.63;6109342;28;104277;-55
2022/07/31 00:23:04;;;;;;;8.20;7.60;;;;;;;27.93;46.63;94898.91;6096878;28;104945;-54
2022/07/31 00:26:08;;;;;;;8.20;7.60;;;;;;;28.10;46.70;94907.75;6112478;28;103518;-54
2022/07/31 00:29:12;;;;;;;8.77;7.97;;;;;;;28.21;47.01;94906.84;6112968;28;103687;-56
2022/07/31 00:32:18;;;;;;;9.30;8.60;;;;;;;28.16;46.75;94911.72;6110022;28;105501;-55
2022/07/31 00:35:21;;;;;;;8.90;8.10;;;;;;;28.02;46.89;94923.69;6110206;28;104626;-55
2022/07/31 00:38:24;;;;;;;8.27;7.50;;;;;;;27.90;46.79;94923.03;6112446;28;103688;-55
2022/07/31 00:41:38;;;;;;;8.80;8.10;;;;;;;27.81;46.78;94925.06;6113257;28;104880;-54
2022/07/31 00:44:42;;;;;;;8.10;7.60;;;;;;;27.70;46.90;94919.38;6103818;28;106071;-56
2022/07/31 00:47:49;;;;;;;8.00;7.27;;;;;;;27.68;46.94;94924.34;6112836;28;103854;-55
2022/07/31 00:50:57;;;;;;;8.30;7.60;;;;;;;27.55;47.24;94928.19;6113047;28;104815;-55
2022/07/31 00:54:00;;;;;;;8.27;7.67;;;;;;;27.32;47.91;94923.38;6113484;28;103903;-55
2022/07/31 00:57:04;;;;;;;7.30;6.80;;;;;;;27.23;47.09;94919.25;6108622;28;103961;-55
2022/07/31 01:00:12;;;;;;;7.47;6.90;;;;;;;27.39;47.51;94926.28;6114813;28;104331;-55
2022/07/31 01:03:17;;;;;;;7.50;6.90;;;;;;;27.55;46.36;94928.19;6113483;28;103683;-55
2022/07/31 01:06:20;;;;;;;8.00;7.40;;;;;;;27.66;46.11;94929.28;6109878;28;103758;-56
2022/07/31 01:09:23;;;;;;;7.30;6.70;;;;;;;27.85;46.52;94932.06;6110074;28;103868;-58
2022/07/31 01:12:31;;;;;;;8.33;6.57;;;;;;;27.87;46.02;94921.78;6111635;28;104046;-58
2022/07/31 01:15:37;;;;;;;6.47;5.97;;;;;;;27.94;45.50;94943.50;6112748;28;103674;-58
2022/07/31 01:18:43;;;;;;;7.40;6.70;;;;;;;28.01;45.58;94940.19;6101819;28;104637;-58
2022/07/31 01:21:58;;;;;;;8.13;7.47;;;;;;;28.07;45.55;94938.81;6109753;28;103865;-58
2022/07/31 01:25:09;;;;;;;7.07;6.57;;;;;;;27.98;45.83;94938.19;6112343;28;105216;-58
2022/07/31 01:28:24;;;;;;;7.00;6.40;;;;;;;27.81;46.01;94936.59;6111624;28;104871;-58
2022/07/31 01:31:35;;;;;;;6.30;5.80;;;;;;;27.63;45.36;94925.38;6102758;28;105077;-58
2022/07/31 01:34:44;;;;;;;6.50;6.00;;;;;;;27.54;46.01;94932.81;6111391;28;103959;-58
2022/07/31 01:37:53;;;;;;;6.10;5.57;;;;;;;27.54;45.71;94929.31;6110980;28;104769;-58
2022/07/31 01:40:59;;;;;;;6.50;6.00;;;;;;;27.42;46.30;94936.34;6099296;28;103982;-58
2022/07/31 01:44:04;;;;;;;6.17;5.63;;;;;;;27.38;46.14;94929.28;6110226;28;103870;-58
2022/07/31 01:47:10;;;;;;;5.93;5.37;;;;;;;27.38;46.19;94932.75;6111833;28;103663;-58
2022/07/31 01:50:14;;;;;;;6.70;6.00;;;;;;;27.37;45.98;94936.56;6112447;28;103790;-58
2022/07/31 01:53:39;;;;;;;6.23;5.80;;;;;;;27.29;46.20;94925.97;6105406;28;103856;-58
2022/07/31 01:56:44;;;;;;;6.43;5.93;;;;;;;27.31;45.51;94924.50;6115419;28;105061;-58
2022/07/31 01:59:49;;;;;;;7.80;7.20;;;;;;;27.26;46.15;94918.59;6111886;28;103888;-58
2022/07/31 02:02:59;;;;;;;7.53;6.80;;;;;;;27.31;46.01;94912.97;6110320;28;103738;-58
2022/07/31 02:06:12;;;;;;;7.00;6.40;;;;;;;27.54;45.56;94911.28;6110816;28;104717;-58
2022/07/31 02:09:19;;;;;;;7.10;6.50;;;;;;;27.66;44.85;94919.31;6115769;28;103759;-58
2022/07/31 02:12:24;;;;;;;9.80;6.10;;;;;;;27.73;45.13;94921.41;6114787;28;104848;-58
2022/07/31 02:15:36;;;;;;;7.30;6.67;;;;;;;27.70;44.86;94932.84;6092582;28;104634;-58
2022/07/31 02:18:41;;;;;;;6.60;6.00;;;;;;;27.63;44.50;94929.97;6113806;28;103764;-58
2022/07/31 02:21:45;;;;;;;6.50;6.00;;;;;;;27.76;44.56;94923.41;6114976;28;104817;-57
2022/07/31 02:24:48;;;;;;;7.50;6.33;;;;;;;27.83;44.38;94931.66;6115561;28;103690;-57
2022/07/31 02:27:52;;;;;;;6.73;6.23;;;;;;;27.85;43.80;94932.06;6105832;28;105074;-57
2022/07/31 02:31:01;;;;;;;5.87;5.50;;;;;;;27.89;44.06;94924.94;6113384;28;104897;-57
2022/07/31 02:34:06;;;;;;;7.40;5.70;;;;;;;27.94;44.23;94934.66;6114631;28;103857;-57
2022/07/31 02:37:10;;;;;;;6.73;6.10;;;;;;;27.93;43.66;94930.41;6102048;28;105071;-58
2022/07/31 02:40:14;;;;;;;6.90;6.20;;;;;;;27.95;44.27;94931.59;6095068;28;103887;-57
2022/07/31 02:43:18;;;;;;;6.60;6.20;;;;;;;27.96;44.03;94929.69;6114689;28;103792;-57
2022/07/31 02:46:22;;;;;;;7.50;6.70;;;;;;;27.97;44.61;94940.13;6114390;28;104874;-58
2022/07/31 02:49:27;;;;;;;7.40;6.80;;;;;;;27.90;43.79;94934.56;6104375;28;104148;-58
2022/07/31 02:52:31;;;;;;;8.00;7.37;;;;;;;27.90;43.74;94939.94;6114843;28;104256;-58
2022/07/31 02:55:34;;;;;;;7.60;7.10;;;;;;;27.74;44.18;94936.41;6113177;28;103987;-58
2022/07/31 02:58:40;;;;;;;7.63;6.93;;;;;;;27.68;44.28;94935.09;6114468;28;104060;-58
2022/07/31 03:01:44;;;;;;;7.90;7.30;;;;;;;27.55;44.97;94934.34;6103374;28;104474;-58
2022/07/31 03:04:48;;;;;;;7.83;7.23;;;;;;;27.45;44.89;94935.66;6114927;28;105070;-57
2022/07/31 03:07:51;;;;;;;8.90;8.30;;;;;;;27.28;45.08;94935.94;6111472;28;103800;-58
2022/07/31 03:10:54;;;;;;;8.90;8.27;;;;;;;27.30;44.86;94938.28;6109468;28;104257;-57
2022/07/31 03:14:00;;;;;;;12.40;11.27;;;;;;;27.07;45.13;94935.31;6108069;28;103960;-57
2022/07/31 03:17:05;;;;;;;9.93;9.23;;;;;;;27.05;45.53;94937.53;6113749;28;103866;-57
2022/07/31 03:20:11;;;;;;;13.50;11.73;;;;;;;27.23;44.83;94943.44;6114221;28;103577;-57
2022/07/31 03:23:14;;;;;;;15.67;14.37;;;;;;;27.31;45.04;94943.31;6101357;28;104104;-57
2022/07/31 03:26:18;;;;;;;11.20;10.20;;;;;;;27.40;44.75;94940.50;6112914;28;103946;-57
2022/07/31 03:29:21;;;;;;;11.10;10.20;;;;;;;27.52;44.84;94939.66;6112025;28;104049;-58
2022/07/31 03:32:44;;;;;;;10.43;9.63;;;;;;;27.57;44.16;94942.09;6112662;28;103384;-57
2022/07/31 03:35:49;;;;;;;11.33;10.40;;;;;;;27.67;44.09;94950.44;6101695;28;104707;-57
2022/07/31 03:38:52;;;;;;;10.60;9.80;;;;;;;27.67;44.41;94955.03;6112696;28;105034;-58
2022/07/31 03:41:57;;;;;;;14.90;13.30;;;;;;;27.65;44.71;94960.75;6111262;28;103990;-57
2022/07/31 03:45:01;;;;;;;10.47;9.67;;;;;;;27.61;44.81;94959.91;6108499;28;103793;-57
2022/07/31 03:48:07;;;;;;;10.23;9.43;;;;;;;27.58;44.86;94957.13;6107421;28;104133;-57
2022/07/31 03:51:12;;;;;;;10.03;9.30;;;;;;;27.47;44.97;94964.88;6113760;28;104801;-57
2022/07/31 03:54:15;;;;;;;11.77;10.60;;;;;;;27.28;45.39;94967.41;6109615;28;103648;-58
2022/07/31 03:57:20;;;;;;;12.00;11.00;;;;;;;27.29;45.91;94969.75;6103172;28;105000;-57
2022/07/31 04:00:29;;;;;;;12.47;11.50;;;;;;;27.18;45.45;94963.25;6111492;28;103671;-57
2022/07/31 04:03:33;;;;;;;11.87;11.00;;;;;;;27.01;46.16;94964.31;6112555;28;105066;-57
2022/07/31 04:06:37;;;;;;;29.73;27.37;;;;;;;26.98;46.63;94969.56;6099843;28;103539;-57
2022/07/31 04:09:41;;;;;;;27.47;25.17;;;;;;;27.04;46.43;94970.91;6104784;28;104024;-57
2022/07/31 04:12:44;;;;;;;18.27;16.77;;;;;;;27.09;46.41;94968.78;6136073;28;103712;-57
2022/07/31 04:15:47;;;;;;;14.10;13.00;;;;;;;27.22;46.15;94974.91;6116717;28;104762;-58
2022/07/31 04:18:50;;;;;;;11.30;10.50;;;;;;;27.31;46.54;94967.50;6105620;28;105173;-58
2022/07/31 04:21:55;;;;;;;11.67;10.57;;;;;;;27.38;45.96;94964.22;6106274;28;103750;-58
2022/07/31 04:24:58;;;;;;;11.07;10.20;;;;;;;27.43;46.33;94972.06;6111578;28;104210;-58
2022/07/31 04:28:01;;;;;;;10.17;9.37;;;;;;;27.48;46.12;94971.81;6112148;28;104821;-57
2022/07/31 04:31:04;;;;;;;10.43;9.73;;;;;;;27.48;46.24;94973.72;6099979;28;104653;-57
2022/07/31 04:34:09;;;;;;;10.27;9.47;;;;;;;27.57;45.34;94974.38;6110134;28;103360;-57
2022/07/31 04:37:15;;;;;;;10.30;9.60;;;;;;;27.58;46.19;94968.66;6111975;28;103882;-57
2022/07/31 04:40:18;;;;;;;10.27;9.43;;;;;;;27.60;45.93;94969.09;6112085;28;104063;-57
2022/07/31 04:43:21;;;;;;;10.47;9.47;;;;;;;27.50;46.14;94964.19;6102738;28;103784;-57
2022/07/31 04:46:24;;;;;;;10.53;9.70;;;;;;;27.33;46.52;94961.78;6110310;28;103609;-58
2022/07/31 04:49:27;;;;;;;11.37;10.40;;;;;;;27.25;46.38;94968.06;6112026;28;103910;-57
2022/07/31 04:52:33;;;;;;;10.83;9.83;;;;;;;27.20;46.24;94957.53;6111155;28;104362;-58
2022/07/31 04:55:36;;;;;;;10.60;9.80;;;;;;;27.19;47.16;94964.81;6105905;28;104710;-58
2022/07/31 04:58:39;;;;;;;10.47;9.57;;;;;;;27.15;46.74;94969.31;6111891;28;104789;-59
2022/07/31 05:01:44;;;;;;;13.70;12.60;;;;;;;27.08;46.68;94969.13;6104563;28;104025;-58
2022/07/31 05:04:47;;;;;;;10.73;9.93;;;;;;;27.03;47.44;94972.81;6108164;28;103708;-58
2022/07/31 05:08:01;;;;;;;11.33;10.33;;;;;;;27.04;47.45;94979.75;6114687;28;103808;-58
2022/07/31 05:11:22;;;;;;;12.37;11.27;;;;;;;27.15;47.30;94977.38;6112293;28;103859;-57
2022/07/31 05:14:25;;;;;;;11.03;10.03;;;;;;;27.36;47.13;94975.31;6111198;28;103790;-57
2022/07/31 05:17:29;;;;;;;11.73;10.67;;;;;;;27.41;46.62;94977.78;6098628;28;104020;-58
2022/07/31 05:20:32;;;;;;;10.57;9.77;;;;;;;27.49;46.74;94977.97;6111243;28;103695;-58
2022/07/31 05:23:36;;;;;;;11.80;10.93;;;;;;;27.55;45.87;94973.91;6112081;28;104799;-58
2022/07/31 05:26:39;;;;;;;10.60;9.70;;;;;;;27.60;46.24;94965.63;6111652;28;103828;-58
2022/07/31 05:29:42;;;;;;;10.90;10.10;;;;;;;27.68;46.12;94978.13;6102269;28;105016;-58
2022/07/31 05:32:45;;;;;;;10.77;9.83;;;;;;;27.68;45.74;94984.28;6115996;28;103912;-58
2022/07/31 05:35:49;;;;;;;11.57;10.67;;;;;;;27.58;46.25;94978.63;6114943;28;103807;-58
2022/07/31 05:38:53;;;;;;;10.07;9.37;;;;;;;27.41;45.94;94977.00;6093752;28;104933;-57
2022/07/31 05:41:56;;;;;;;12.37;9.00;;;;;;;27.23;46.49;94976.47;6109758;28;103957;-59
2022/07/31 05:44:59;;;;;;;16.03;9.30;;;;;;;27.16;46.54;94970.88;6113786;28;103629;-58
2022/07/31 05:48:03;;;;;;;9.80;9.00;;;;;;;27.23;46.61;94964.94;6115440;28;105054;-55
2022/07/31 05:51:09;;;;;;;9.07;8.13;;;;;;;27.21;46.43;94967.94;6103658;28;105137;-55
2022/07/31 05:54:13;;;;;;;9.07;8.27;;;;;;;27.26;46.66;94959.69;6113989;28;104292;-55
2022/07/31 05:57:16;;;;;;;8.57;7.97;;;;;;;27.52;45.81;94974.59;6113840;28;104770;-54
2022/07/31 06:00:36;;;;;;;8.90;8.10;;;;;;;27.69;45.36;94969.69;6133451;28;105971;-53
2022/07/31 06:03:39;;;;;;;7.80;7.10;;;;;;;27.69;45.24;94977.75;6107267;28;103790;-54
2022/07/31 06:06:54;;;;;;;8.90;8.00;;;;;;;27.77;45.29;94968.00;6114093;28;103872;-53
2022/07/31 06:09:59;;;;;;;8.20;7.60;;;;;;;27.62;44.90;94944.53;6122197;28;104827;-54
2022/07/31 06:13:02;;;;;;;10.30;8.30;;;;;;;27.82;44.98;94973.13;6106263;28;103936;-53
2022/07/31 06:16:12;;;;;;;15.13;7.90;;;;;;;27.94;44.94;94972.31;6114440;28;104812;-53
2022/07/31 06:19:15;;;;;;;9.67;7.27;;;;;;;27.98;45.08;94967.78;6113531;28;104663;-53
2022/07/31 06:22:18;;;;;;;12.30;9.60;;;;;;;27.91;44.45;94963.03;6113733;28;103734;-53
2022/07/31 06:25:24;;;;;;;20.13;12.90;;;;;;;27.94;44.70;94962.31;6103738;28;103930;-54
2022/07/31 06:28:36;;;;;;;22.83;14.87;;;;;;;28.04;45.27;94966.41;6112692;28;104799;-52
2022/07/31 06:31:50;;;;;;;33.00;15.77;;;;;;;28.19;45.22;94965.63;6113889;28;104591;-56
2022/07/31 06:34:54;;;;;;;25.40;14.90;;;;;;;28.28;45.55;94965.47;6107807;28;103703;-54
2022/07/31 06:37:57;;;;;;;29.30;15.17;;;;;;;28.18;44.91;94957.91;6107205;28;104132;-54
2022/07/31 06:41:01;;;;;;;20.50;16.13;;;;;;;27.99;45.36;94959.38;6096058;28;104148;-54
2022/07/31 06:44:04;;;;;;;18.57;16.80;;;;;;;27.95;45.60;94961.19;6095504;28;103701;-55
2022/07/31 06:47:07;;;;;;;18.57;16.87;;;;;;;27.91;46.00;94957.66;6081781;28;103927;-55
2022/07/31 06:50:18;;;;;;;17.93;16.33;;;;;;;27.89;45.26;94953.72;6113833;28;104891;-54
2022/07/31 06:53:21;;;;;;;17.60;16.00;;;;;;;27.85;45.99;94950.91;6113138;28;103555;-54
2022/07/31 06:56:25;;;;;;;19.30;17.50;;;;;;;27.34;46.73;94950.69;6112816;28;103411;-56
2022/07/31 06:59:28;;;;;;;18.20;16.50;;;;;;;27.15;47.57;94963.94;6102559;28;104815;-55
2022/07/31 07:02:42;;;;;;;19.03;17.33;;;;;;;26.97;47.80;94952.69;6112783;28;104793;-53
2022/07/31 07:05:45;;;;;;;25.63;18.67;;;;;;;27.42;48.27;94957.84;6111838;28;104648;-53
2022/07/31 07:08:48;;;;;;;23.20;20.60;;;;;;;27.63;48.18;94960.31;6110073;28;104747;-57
2022/07/31 07:11:53;;;;;;;21.90;19.70;;;;;;;27.91;47.61;94962.25;6106701;28;103666;-54
2022/07/31 07:14:56;;;;;;;24.07;19.40;;;;;;;28.03;47.84;94962.94;6112041;28;103669;-53
2022/07/31 07:18:00;;;;;;;21.90;18.20;;;;;;;28.20;47.32;94969.09;6113363;28;104140;-55
2022/07/31 07:21:04;;;;;;;25.13;20.47;;;;;;;28.28;45.97;94971.63;6102684;28;104100;-54
2022/07/31 07:24:09;;;;;;;133.60;26.00;;;;;;;27.70;46.81;94973.16;6111391;28;104721;-53
2022/07/31 07:27:13;;;;;;;72.47;25.70;;;;;;;27.91;46.39;94968.41;6113106;28;103841;-54
2022/07/31 07:30:16;;;;;;;89.40;26.00;;;;;;;28.16;46.25;94969.03;6113335;28;104741;-55
2022/07/31 07:33:19;;;;;;;50.43;25.17;;;;;;;28.42;45.88;94978.50;6100563;28;103738;-55
2022/07/31 07:36:42;;;;;;;45.20;23.67;;;;;;;28.54;45.94;94973.81;6110239;28;106504;-54
2022/07/31 07:39:45;;;;;;;50.87;23.50;;;;;;;28.51;46.20;94982.59;6113972;28;103797;-54
2022/07/31 07:42:50;;;;;;;39.00;21.40;;;;;;;28.48;45.79;94974.44;6109320;28;103982;-55
2022/07/31 07:45:53;;;;;;;26.20;20.60;;;;;;;28.41;46.43;94975.03;6105510;28;103761;-55
2022/07/31 07:48:56;;;;;;;35.33;21.47;;;;;;;28.39;46.38;94973.78;6111068;28;103966;-55
2022/07/31 07:51:59;;;;;;;23.00;20.13;;;;;;;28.32;46.22;94971.72;6111776;28;103676;-55
2022/07/31 07:55:03;;;;;;;24.87;19.97;;;;;;;28.31;46.62;94964.78;6101821;28;104191;-56
2022/07/31 07:58:08;;;;;;;22.87;20.30;;;;;;;28.25;46.96;94960.78;6112164;28;103809;-54
2022/07/31 08:01:14;;;;;;;22.03;19.93;;;;;;;28.26;46.65;94954.28;6108455;28;103771;-57
2022/07/31 08:04:18;;;;;;;20.10;18.17;;;;;;;28.43;46.87;94962.00;6102731;28;104913;-55
2022/07/31 08:07:27;;;;;;;25.83;20.40;;;;;;;28.59;47.35;94968.19;6092935;28;105656;-57
2022/07/31 08:10:44;;;;;;;22.17;19.80;;;;;;;28.72;47.37;94962.66;6104577;28;103454;-56
2022/07/31 08:13:49;;;;;;;21.43;19.27;;;;;;;28.59;47.70;94973.56;6095085;28;103870;-55
2022/07/31 08:16:53;;;;;;;20.53;18.37;;;;;;;28.23;47.25;94949.59;6076202;28;103865;-54
2022/07/31 08:19:56;;;;;;;21.07;19.10;;;;;;;28.38;46.79;94975.69;6095448;28;104728;-55
2022/07/31 08:22:59;;;;;;;18.30;16.80;;;;;;;28.32;45.89;94979.78;6096988;28;104705;-55
2022/07/31 08:26:03;;;;;;;17.17;15.77;;;;;;;28.19;45.15;94962.16;6101783;28;105075;-54
2022/07/31 08:29:09;;;;;;;16.60;15.30;;;;;;;28.24;44.87;94978.84;6093499;28;103756;-55
2022/07/31 08:32:14;;;;;;;15.83;14.53;;;;;;;28.10;45.38;94983.09;6094356;28;105276;-55
2022/07/31 08:35:19;;;;;;;14.70;13.60;;;;;;;28.05;45.71;94984.88;6099666;28;103977;-55
2022/07/31 08:38:22;;;;;;;14.23;13.13;;;;;;;27.94;45.56;94983.06;6103135;28;103770;-57
2022/07/31 08:41:25;;;;;;;14.70;13.50;;;;;;;27.66;46.43;94980.38;6090695;28;104481;-56
2022/07/31 08:44:30;;;;;;;13.13;12.13;;;;;;;27.57;46.16;94980.53;6100071;28;103668;-55
2022/07/31 08:47:35;;;;;;;14.90;13.50;;;;;;;27.63;46.28;94987.22;6100246;28;103122;-55
2022/07/31 08:50:40;;;;;;;14.63;13.33;;;;;;;27.49;46.94;94975.28;6100449;28;105151;-55
2022/07/31 08:53:44;;;;;;;14.13;12.70;;;;;;;27.53;46.48;94978.84;6085963;28;104355;-56
2022/07/31 08:56:51;;;;;;;13.67;12.67;;;;;;;27.36;46.74;94963.78;6097256;28;104948;-57
2022/07/31 08:59:56;;;;;;;13.47;12.37;;;;;;;27.68;46.29;94980.81;6102502;28;104228;-57
2022/07/31 09:02:59;;;;;;;13.67;12.23;;;;;;;27.81;46.74;94984.22;6100680;28;103738;-58
2022/07/31 09:06:02;;;;;;;12.13;11.23;;;;;;;27.89;46.36;94986.81;6099631;28;103954;-56
2022/07/31 09:09:06;;;;;;;12.13;11.17;;;;;;;27.83;46.78;94985.44;6106949;28;103880;-58
2022/07/31 09:12:09;;;;;;;12.37;11.13;;;;;;;27.96;46.23;94978.13;6107610;28;104880;-56
2022/07/31 09:15:24;;;;;;;13.40;11.50;;;;;;;27.75;46.52;94957.59;6088830;28;104180;-53
2022/07/31 09:18:27;;;;;;;11.30;10.50;;;;;;;27.96;45.50;94981.59;6104731;28;103953;-56
2022/07/31 09:21:39;;;;;;;11.77;10.80;;;;;;;27.76;45.56;94971.81;6099564;28;105000;-56
2022/07/31 09:24:42;;;;;;;12.17;11.20;;;;;;;27.95;45.76;94980.03;6100322;28;104977;-54
2022/07/31 09:27:46;;;;;;;12.33;11.23;;;;;;;28.14;44.95;94979.34;6097681;28;105010;-54
2022/07/31 09:30:55;;;;;;;11.53;10.73;;;;;;;27.95;45.29;94958.50;6107137;28;104034;-55
2022/07/31 09:33:59;;;;;;;14.20;12.90;;;;;;;27.76;46.04;94953.00;6104154;28;104978;-55
2022/07/31 09:37:12;;;;;;;12.87;11.87;;;;;;;27.62;45.84;94939.16;6094952;28;104771;-54
2022/07/31 09:40:15;;;;;;;11.40;10.50;;;;;;;27.44;46.37;94934.09;6107006;28;104965;-55
2022/07/31 09:43:24;;;;;;;12.30;11.30;;;;;;;27.45;45.93;94954.47;6105126;28;105034;-55
2022/07/31 09:46:38;;;;;;;14.40;13.20;;;;;;;27.34;46.19;94956.06;6094058;28;104890;-56
2022/07/31 09:49:42;;;;;;;12.47;11.27;;;;;;;27.30;46.04;94944.44;6080112;28;105069;-55
2022/07/31 09:52:45;;;;;;;13.77;12.67;;;;;;;27.24;46.13;94948.47;6097110;28;104494;-55
2022/07/31 09:55:51;;;;;;;16.13;14.90;;;;;;;27.34;45.60;94941.84;6099999;28;104460;-55
2022/07/31 09:58:54;;;;;;;16.87;15.57;;;;;;;27.47;45.82;94940.69;6098205;28;103940;-54
2022/07/31 10:02:00;;;;;;;16.60;15.20;;;;;;;27.61;45.11;94951.81;6084356;28;105014;-56
2022/07/31 10:05:04;;;;;;;17.17;15.77;;;;;;;27.55;43.80;94944.34;6099141;28;104148;-56
2022/07/31 10:08:10;;;;;;;16.93;15.63;;;;;;;27.31;43.40;94935.25;6107550;28;103806;-53
2022/07/31 10:11:19;;;;;;;18.40;16.90;;;;;;;26.99;44.76;94928.16;6097569;28;104720;-54
2022/07/31 10:14:28;;;;;;;18.77;17.27;;;;;;;27.27;44.41;94915.56;6104015;28;105278;-57
2022/07/31 10:17:36;;;;;;;19.37;17.67;;;;;;;27.42;44.38;94941.72;6105840;28;104901;-55
2022/07/31 10:20:44;;;;;;;17.73;16.23;;;;;;;27.45;43.13;94932.97;6106914;28;104835;-58
2022/07/31 10:23:48;;;;;;;19.30;17.60;;;;;;;27.45;43.00;94935.66;6093590;28;103677;-56
2022/07/31 10:26:52;;;;;;;20.10;18.50;;;;;;;27.72;42.67;94930.56;6105452;28;104940;-56
2022/07/31 10:30:12;;;;;;;19.13;17.53;;;;;;;27.88;41.82;94939.47;6106311;28;104853;-56
2022/07/31 10:33:17;;;;;;;19.30;17.90;;;;;;;27.86;42.92;94941.75;6095055;28;104104;-54
2022/07/31 10:36:43;;;;;;;19.60;17.90;;;;;;;27.98;42.90;94930.13;6090944;28;105970;-55
2022/07/31 10:39:53;;;;;;;19.23;17.73;;;;;;;27.97;42.39;94929.34;6104581;28;104400;-56
2022/07/31 10:43:11;;;;;;;19.43;17.83;;;;;;;27.91;42.59;94914.59;6104348;28;104898;-55
2022/07/31 10:46:14;;;;;;;18.37;16.87;;;;;;;27.86;42.57;94917.53;6090271;28;103581;-55
2022/07/31 10:49:19;;;;;;;16.80;15.47;;;;;;;27.86;42.00;94904.09;6106744;28;104553;-54
2022/07/31 10:52:30;;;;;;;16.63;15.27;;;;;;;27.62;42.29;94912.28;6105369;28;104361;-54
2022/07/31 10:55:34;;;;;;;17.40;16.10;;;;;;;27.57;42.49;94901.78;6096698;28;104432;-55
2022/07/31 10:58:47;;;;;;;16.33;15.13;;;;;;;27.54;42.82;94897.06;6097171;28;105176;-55
2022/07/31 11:01:53;;;;;;;17.10;15.77;;;;;;;27.44;42.60;94904.53;6105939;28;104048;-57
2022/07/31 11:05:09;;;;;;;16.07;14.87;;;;;;;27.29;42.59;94897.19;6100952;28;104285;-56
2022/07/31 11:08:13;;;;;;;16.63;15.37;;;;;;;27.22;41.98;94897.00;6096067;28;104704;-56
2022/07/31 11:11:16;;;;;;;16.17;14.77;;;;;;;27.21;42.67;94898.09;6106291;28;105024;-55
2022/07/31 11:14:31;;;;;;;15.80;14.70;;;;;;;27.31;42.60;94891.47;6101472;28;103649;-57
2022/07/31 11:17:36;;;;;;;15.03;13.93;;;;;;;27.50;41.46;94886.22;6106852;28;104654;-56
2022/07/31 11:21:02;;;;;;;14.90;13.80;;;;;;;27.55;42.20;94885.97;6087350;28;103899;-54
2022/07/31 11:24:24;;;;;;;15.63;14.43;;;;;;;27.66;42.12;94881.66;6103218;28;104998;-55
2022/07/31 11:27:31;;;;;;;14.63;13.53;;;;;;;27.82;41.69;94884.38;6119037;28;104879;-57
2022/07/31 11:30:34;;;;;;;13.87;12.63;;;;;;;27.85;40.92;94878.28;6094795;28;104150;-55
2022/07/31 11:33:40;;;;;;;14.50;13.40;;;;;;;27.93;39.78;94874.69;6096830;28;103953;-54
2022/07/31 11:36:46;;;;;;;14.77;13.37;;;;;;;27.91;39.84;94876.16;6110625;28;103744;-54
2022/07/31 11:39:55;;;;;;;14.30;13.00;;;;;;;27.83;39.84;94875.16;6111899;28;103670;-56
2022/07/31 11:43:00;;;;;;;14.80;13.60;;;;;;;27.84;40.20;94857.91;6101551;28;104787;-54
2022/07/31 11:46:25;;;;;;;14.53;13.43;;;;;;;27.87;41.07;94859.91;6107362;28;103951;-53
2022/07/31 11:49:32;;;;;;;14.50;13.30;;;;;;;27.91;40.58;94866.19;6093163;28;105774;-55
2022/07/31 11:53:02;;;;;;;13.93;12.93;;;;;;;27.71;40.78;94867.16;6094809;28;104750;-55
2022/07/31 11:56:05;;;;;;;15.07;13.97;;;;;;;27.54;41.07;94856.75;6102953;28;104226;-55
2022/07/31 11:59:08;;;;;;;15.33;14.07;;;;;;;27.30;42.02;94863.06;6101405;28;104126;-53
2022/07/31 12:02:32;;;;;;;14.47;13.47;;;;;;;27.27;42.06;94850.31;6110493;28;103699;-54
2022/07/31 12:05:44;;;;;;;14.63;13.43;;;;;;;27.09;42.01;94820.25;6092952;28;104750;-55
2022/07/31 12:08:49;;;;;;;16.10;14.70;;;;;;;27.09;42.77;94836.38;6110109;28;103644;-54
2022/07/31 12:11:53;;;;;;;15.87;14.67;;;;;;;27.13;42.39;94845.28;6110547;28;103436;-54
2022/07/31 12:14:56;;;;;;;15.67;14.57;;;;;;;27.31;42.42;94848.50;6110991;28;105195;-54
2022/07/31 12:18:03;;;;;;;16.13;14.60;;;;;;;27.45;42.78;94840.81;6101045;28;106627;-54
2022/07/31 12:21:07;;;;;;;15.27;14.17;;;;;;;27.60;42.14;94834.66;6109402;28;104713;-54
2022/07/31 12:24:12;;;;;;;15.60;14.40;;;;;;;27.72;41.76;94828.41;6108949;28;105293;-56
2022/07/31 12:27:17;;;;;;;14.30;13.30;;;;;;;27.80;41.55;94830.16;6087022;28;104741;-55
2022/07/31 12:30:23;;;;;;;15.03;13.90;;;;;;;27.89;41.25;94832.66;6099653;28;105145;-55
2022/07/31 12:33:40;;;;;;;13.87;12.87;;;;;;;27.96;40.85;94825.56;6102371;28;103942;-54
2022/07/31 12:36:44;;;;;;;13.80;12.77;;;;;;;27.96;40.81;94819.41;6094184;28;104906;-55
2022/07/31 12:39:54;;;;;;;13.43;12.47;;;;;;;28.07;40.95;94819.66;6085634;28;104719;-55
2022/07/31 12:43:03;;;;;;;14.00;13.03;;;;;;;28.01;40.98;94813.75;6107668;28;103661;-53
2022/07/31 12:46:06;;;;;;;14.07;12.80;;;;;;;28.07;40.87;94812.38;6109558;28;105541;-55
2022/07/31 12:49:09;;;;;;;13.70;12.70;;;;;;;27.96;40.92;94814.81;6105370;28;103696;-55
2022/07/31 12:52:12;;;;;;;13.87;12.93;;;;;;;27.81;40.95;94807.50;6106010;28;104738;-54
2022/07/31 12:55:17;;;;;;;14.13;13.10;;;;;;;27.65;40.42;94806.72;6110859;28;106573;-54
2022/07/31 12:58:20;;;;;;;13.53;12.53;;;;;;;27.61;40.53;94809.34;6111113;28;104808;-54
2022/07/31 13:01:23;;;;;;;13.10;12.20;;;;;;;27.49;40.63;94797.88;6100971;28;103968;-54
2022/07/31 13:04:27;;;;;;;12.40;11.50;;;;;;;27.46;40.42;94793.97;6105647;28;104723;-53
2022/07/31 13:07:30;;;;;;;11.90;11.10;;;;;;;27.37;39.88;94788.75;6107006;28;103740;-54
2022/07/31 13:10:34;;;;;;;10.97;10.17;;;;;;;27.22;39.59;94769.91;6109038;28;105010;-54
2022/07/31 13:13:37;;;;;;;10.80;10.10;;;;;;;27.27;39.97;94777.75;6098428;28;103845;-54
2022/07/31 13:16:41;;;;;;;11.93;11.03;;;;;;;27.31;40.53;94787.47;6107307;28;103859;-54
2022/07/31 13:19:44;;;;;;;11.37;10.47;;;;;;;27.30;40.56;94796.66;6110291;28;103955;-54
2022/07/31 13:22:47;;;;;;;10.97;10.20;;;;;;;27.34;40.41;94786.75;6110319;28;104027;-54
2022/07/31 13:25:51;;;;;;;12.17;11.27;;;;;;;27.59;40.10;94789.31;6099725;28;105036;-54
2022/07/31 13:28:54;;;;;;;12.53;11.63;;;;;;;27.66;39.29;94792.94;6109321;28;103816;-53
2022/07/31 13:31:57;;;;;;;11.20;10.50;;;;;;;27.85;39.03;94792.22;6105992;28;103931;-54
2022/07/31 13:35:01;;;;;;;11.37;10.57;;;;;;;27.94;39.13;94784.78;6103050;28;103928;-54
2022/07/31 13:38:24;;;;;;;12.17;11.27;;;;;;;27.99;39.43;94787.19;6109463;28;103687;-54
2022/07/31 13:41:29;;;;;;;12.90;12.00;;;;;;;28.13;39.12;94780.59;6110222;28;105051;-54
2022/07/31 13:44:33;;;;;;;12.03;11.23;;;;;;;28.21;39.58;94776.91;6110204;28;104887;-54
2022/07/31 13:47:36;;;;;;;11.77;10.97;;;;;;;28.28;39.21;94779.78;6092361;28;104954;-55
2022/07/31 13:50:52;;;;;;;11.70;10.90;;;;;;;28.32;38.21;94783.31;6105001;28;103700;-55
2022/07/31 13:53:59;;;;;;;10.37;9.67;;;;;;;28.26;38.32;94773.97;6106740;28;104301;-55
2022/07/31 13:57:05;;;;;;;11.13;10.33;;;;;;;28.29;37.65;94773.25;6108089;28;103745;-54
2022/07/31 14:00:09;;;;;;;11.50;10.70;;;;;;;28.33;38.17;94774.09;6096110;28;104965;-55
2022/07/31 14:03:13;;;;;;;11.13;10.33;;;;;;;28.40;38.14;94765.41;6103844;28;103798;-55
2022/07/31 14:06:20;;;;;;;11.60;10.83;;;;;;;28.19;38.17;94749.56;6106806;28;103675;-55
2022/07/31 14:09:25;;;;;;;12.30;11.50;;;;;;;28.41;38.04;94778.53;6094195;28;103670;-54
2022/07/31 14:12:29;;;;;;;12.57;11.30;;;;;;;28.34;38.43;94781.81;6099577;28;104566;-54